createdAt,value
2023-12-03T00:00:51.898Z,-0.50
2023-12-03T00:03:18.739Z,-0.56
2023-12-03T00:05:45.543Z,-0.60
2023-12-03T00:08:12.874Z,-0.60
2023-12-03T00:10:39.927Z,-0.60
2023-12-03T00:13:06.575Z,-0.62
2023-12-03T00:15:33.209Z,-0.70
2023-12-03T00:18:00.568Z,-0.70
2023-12-03T00:20:27.694Z,-0.70
2023-12-03T00:22:54.907Z,-0.70
2023-12-03T00:25:21.466Z,-0.78
2023-12-03T00:27:48.111Z,-0.80
2023-12-03T00:30:15.036Z,-0.80
2023-12-03T00:32:41.747Z,-0.80
2023-12-03T00:35:09.151Z,-0.90
2023-12-03T00:37:35.787Z,-0.90
2023-12-03T00:40:02.367Z,-0.90
2023-12-03T00:42:28.999Z,-0.90
2023-12-03T00:44:55.748Z,-0.98
2023-12-03T00:47:22.359Z,-1.00
2023-12-03T00:49:49.107Z,-1.00
2023-12-03T00:52:15.926Z,-1.00
2023-12-03T00:54:42.597Z,-1.10
2023-12-03T00:57:09.376Z,-1.12
2023-12-03T00:59:36.068Z,-1.20
2023-12-03T01:02:02.835Z,-1.20
2023-12-03T01:04:29.525Z,-1.30
2023-12-03T01:06:56.448Z,-1.30
2023-12-03T01:09:23.033Z,-1.38
2023-12-03T01:11:52.094Z,-1.36
2023-12-03T01:14:18.759Z,-1.34
2023-12-03T01:16:47.440Z,-1.30
2023-12-03T01:19:14.132Z,-1.30
2023-12-03T01:21:40.953Z,-1.30
2023-12-03T01:24:07.570Z,-1.30
2023-12-03T01:26:34.228Z,-1.30
2023-12-03T01:29:00.795Z,-1.30
2023-12-03T01:31:27.418Z,-1.30
2023-12-03T01:33:54.141Z,-1.20
2023-12-03T01:36:20.875Z,-1.20
2023-12-03T01:38:47.448Z,-1.20
2023-12-03T01:41:14.051Z,-1.20
2023-12-03T01:43:54.251Z,-1.18
2023-12-03T01:46:24.297Z,-1.16
2023-12-03T01:48:52.032Z,-1.10
2023-12-03T01:51:19.891Z,-1.10
2023-12-03T01:53:46.700Z,-1.10
2023-12-03T01:56:14.053Z,-1.10
2023-12-03T01:58:41.166Z,-1.10
2023-12-03T02:01:08.540Z,-1.10
2023-12-03T02:03:35.439Z,-1.10
2023-12-03T02:06:10.643Z,-1.10
2023-12-03T02:08:38.103Z,-1.10
2023-12-03T02:11:07.054Z,-1.10
2023-12-03T02:13:35.802Z,-1.16
2023-12-03T02:16:02.421Z,-1.18
2023-12-03T02:18:29.957Z,-1.16
2023-12-03T02:20:56.743Z,-1.10
2023-12-03T02:23:23.629Z,-1.10
2023-12-03T02:25:52.247Z,-1.10
2023-12-03T02:28:19.484Z,-1.10
2023-12-03T02:30:46.458Z,-1.10
2023-12-03T02:33:13.520Z,-1.10
2023-12-03T02:35:40.258Z,-1.10
2023-12-03T02:38:06.931Z,-1.10
2023-12-03T02:40:34.756Z,-1.10
2023-12-03T02:43:01.564Z,-1.10
2023-12-03T02:45:28.235Z,-1.10
2023-12-03T02:47:54.941Z,-1.10
2023-12-03T02:50:21.691Z,-1.10
2023-12-03T02:52:48.331Z,-1.10
2023-12-03T02:55:15.216Z,-1.10
2023-12-03T02:57:41.938Z,-1.10
2023-12-03T03:00:09.150Z,-1.10
2023-12-03T03:02:37.988Z,-1.14
2023-12-03T03:05:06.320Z,-1.14
2023-12-03T03:07:32.902Z,-1.10
2023-12-03T03:09:59.608Z,-1.10
2023-12-03T03:12:26.257Z,-1.12
2023-12-03T03:14:52.901Z,-1.10
2023-12-03T03:17:19.473Z,-1.12
2023-12-03T03:19:46.122Z,-1.18
2023-12-03T03:22:14.019Z,-1.18
2023-12-03T03:24:42.297Z,-1.20
2023-12-03T03:27:09.164Z,-1.20
2023-12-03T03:29:36.818Z,-1.16
2023-12-03T03:32:03.563Z,-1.14
2023-12-03T03:34:30.205Z,-1.10
2023-12-03T03:36:56.891Z,-1.10
2023-12-03T03:39:23.481Z,-1.10
2023-12-03T03:41:50.145Z,-1.10
2023-12-03T03:44:16.791Z,-1.18
2023-12-03T03:46:43.448Z,-1.12
2023-12-03T03:49:10.866Z,-1.20
2023-12-03T03:51:37.553Z,-1.20
2023-12-03T03:54:04.351Z,-1.20
2023-12-03T03:56:31.209Z,-1.20
2023-12-03T03:58:57.855Z,-1.20
2023-12-03T04:01:24.579Z,-1.20
2023-12-03T04:03:51.312Z,-1.20
2023-12-03T04:06:18.114Z,-1.20
2023-12-03T04:08:44.829Z,-1.20
2023-12-03T04:11:11.414Z,-1.20
2023-12-03T04:13:38.595Z,-1.20
2023-12-03T04:16:05.522Z,-1.14
2023-12-03T04:18:32.152Z,-1.10
2023-12-03T04:20:58.859Z,-1.10
2023-12-03T04:23:25.474Z,-1.10
2023-12-03T04:25:52.080Z,-1.10
2023-12-03T04:28:18.652Z,-1.10
2023-12-03T04:30:45.253Z,-1.18
2023-12-03T04:33:12.111Z,-1.20
2023-12-03T04:35:38.855Z,-1.20
2023-12-03T04:38:05.611Z,-1.20
2023-12-03T04:40:32.462Z,-1.20
2023-12-03T04:42:59.094Z,-1.20
2023-12-03T04:45:25.740Z,-1.20
2023-12-03T04:47:52.490Z,-1.24
2023-12-03T04:50:19.083Z,-1.24
2023-12-03T04:52:45.745Z,-1.24
2023-12-03T04:55:12.379Z,-1.30
2023-12-03T04:57:39.033Z,-1.30
2023-12-03T05:00:08.558Z,-1.40
2023-12-03T05:02:35.264Z,-1.40
2023-12-03T05:05:01.869Z,-1.40
2023-12-03T05:07:28.519Z,-1.44
2023-12-03T05:09:55.219Z,-1.50
2023-12-03T05:12:21.937Z,-1.50
2023-12-03T05:14:48.604Z,-1.52
2023-12-03T05:17:15.266Z,-1.50
2023-12-03T05:19:43.460Z,-1.50
2023-12-03T05:22:10.372Z,-1.56
2023-12-03T05:24:37.020Z,-1.58
2023-12-03T05:27:03.916Z,-1.60
2023-12-03T05:29:30.593Z,-1.60
2023-12-03T05:31:57.252Z,-1.50
2023-12-03T05:34:24.880Z,-1.50
2023-12-03T05:36:54.766Z,-1.56
2023-12-03T05:39:22.800Z,-1.52
2023-12-03T05:41:49.671Z,-1.50
2023-12-03T05:44:16.349Z,-1.50
2023-12-03T05:46:43.752Z,-1.50
2023-12-03T05:49:11.439Z,-1.52
2023-12-03T05:51:38.315Z,-1.50
2023-12-03T05:54:04.941Z,-1.50
2023-12-03T05:56:31.604Z,-1.50
2023-12-03T05:58:58.212Z,-1.50
2023-12-03T06:01:25.737Z,-1.50
2023-12-03T06:03:53.023Z,-1.50
2023-12-03T06:06:19.920Z,-1.48
2023-12-03T06:08:46.681Z,-1.50
2023-12-03T06:11:13.506Z,-1.48
2023-12-03T06:13:40.494Z,-1.42
2023-12-03T06:16:07.592Z,-1.40
2023-12-03T06:18:34.240Z,-1.40
2023-12-03T06:21:01.233Z,-1.40
2023-12-03T06:23:27.922Z,-1.40
2023-12-03T06:25:54.520Z,-1.40
2023-12-03T06:28:21.155Z,-1.32
2023-12-03T06:30:48.736Z,-1.40
2023-12-03T06:33:18.303Z,-1.40
2023-12-03T06:35:46.413Z,-1.40
2023-12-03T06:38:13.114Z,-1.40
2023-12-03T06:40:39.722Z,-1.40
2023-12-03T06:43:06.324Z,-1.40
2023-12-03T06:45:33.288Z,-1.40
2023-12-03T06:48:00.027Z,-1.40
2023-12-03T06:50:26.927Z,-1.40
2023-12-03T06:52:53.520Z,-1.36
2023-12-03T06:55:20.195Z,-1.30
2023-12-03T06:57:46.798Z,-1.30
2023-12-03T07:00:14.269Z,-1.30
2023-12-03T07:02:40.940Z,-1.28
2023-12-03T07:05:08.691Z,-1.20
2023-12-03T07:07:35.486Z,-1.20
2023-12-03T07:10:02.539Z,-1.20
2023-12-03T07:12:29.368Z,-1.20
2023-12-03T07:14:56.093Z,-1.20
2023-12-03T07:17:22.823Z,-1.20
2023-12-03T07:19:49.562Z,-1.20
2023-12-03T07:22:16.166Z,-1.20
2023-12-03T07:24:44.316Z,-1.20
2023-12-03T07:27:10.878Z,-1.20
2023-12-03T07:29:37.435Z,-1.18
2023-12-03T07:32:04.583Z,-1.20
2023-12-03T07:34:31.270Z,-1.12
2023-12-03T07:36:58.103Z,-1.10
2023-12-03T07:39:25.511Z,-1.00
2023-12-03T07:41:53.405Z,-0.90
2023-12-03T07:44:20.601Z,-0.90
2023-12-03T07:46:47.550Z,-0.82
2023-12-03T07:49:14.263Z,-0.80
2023-12-03T07:51:40.996Z,-0.80
2023-12-03T07:54:07.668Z,-0.80
2023-12-03T07:56:38.304Z,-0.70
2023-12-03T07:59:05.598Z,-0.70
2023-12-03T08:01:32.746Z,-0.60
2023-12-03T08:04:00.047Z,-0.60
2023-12-03T08:06:27.189Z,-0.50
2023-12-03T08:08:54.420Z,-0.44
2023-12-03T08:11:21.962Z,-0.40
2023-12-03T08:13:48.607Z,-0.40
2023-12-03T08:16:15.445Z,-0.30
2023-12-03T08:18:42.324Z,-0.34
2023-12-03T08:21:11.228Z,-0.30
2023-12-03T08:23:37.919Z,-0.30
2023-12-03T08:26:05.432Z,-0.20
2023-12-03T08:28:32.068Z,-0.20
2023-12-03T08:30:59.979Z,-0.10
2023-12-03T08:33:26.993Z,-0.10
2023-12-03T08:35:54.160Z,0.00
2023-12-03T08:38:20.867Z,0.08
2023-12-03T08:40:47.676Z,0.10
2023-12-03T08:43:15.390Z,0.20
2023-12-03T08:45:42.353Z,0.22
2023-12-03T08:48:09.260Z,0.30
2023-12-03T08:50:36.051Z,0.30
2023-12-03T08:53:02.684Z,0.40
2023-12-03T08:55:29.251Z,0.44
2023-12-03T08:57:57.112Z,0.50
2023-12-03T09:00:23.757Z,0.58
2023-12-03T09:02:50.498Z,0.60
2023-12-03T09:05:17.375Z,0.70
2023-12-03T09:07:43.998Z,0.74
2023-12-03T09:10:10.918Z,0.80
2023-12-03T09:12:37.840Z,0.82
2023-12-03T09:15:05.058Z,0.84
2023-12-03T09:17:33.366Z,0.80
2023-12-03T09:20:00.170Z,0.80
2023-12-03T09:22:26.952Z,0.80
2023-12-03T09:24:53.778Z,0.80
2023-12-03T09:27:20.764Z,0.70
2023-12-03T09:29:47.570Z,0.70
2023-12-03T09:32:14.237Z,0.70
2023-12-03T09:34:41.032Z,0.80
2023-12-03T09:37:07.676Z,0.80
2023-12-03T09:39:34.329Z,0.80
2023-12-03T09:42:03.535Z,0.80
2023-12-03T09:44:36.590Z,0.84
2023-12-03T09:47:03.788Z,0.90
2023-12-03T09:49:30.747Z,0.96
2023-12-03T09:52:03.031Z,1.00
2023-12-03T09:54:32.468Z,1.10
2023-12-03T09:57:00.724Z,1.10
2023-12-03T09:59:28.836Z,1.20
2023-12-03T10:01:59.293Z,1.30
2023-12-03T10:04:25.939Z,1.40
2023-12-03T10:06:57.408Z,1.50
2023-12-03T10:09:24.620Z,1.60
2023-12-03T10:11:57.937Z,1.68
2023-12-03T10:14:25.803Z,1.70
2023-12-03T10:16:53.977Z,1.70
2023-12-03T10:19:28.464Z,1.70
2023-12-03T10:21:57.305Z,1.70
2023-12-03T10:24:24.042Z,1.70
2023-12-03T10:26:52.548Z,1.70
2023-12-03T10:29:24.616Z,1.76
2023-12-03T10:31:52.207Z,1.80
2023-12-03T10:34:21.335Z,1.74
2023-12-03T10:36:48.994Z,1.80
2023-12-03T10:39:19.302Z,1.80
2023-12-03T10:41:47.676Z,1.82
2023-12-03T10:44:25.652Z,1.94
2023-12-03T10:46:52.480Z,2.08
2023-12-03T10:49:21.634Z,2.20
2023-12-03T10:51:49.100Z,2.28
2023-12-03T10:54:15.947Z,2.20
2023-12-03T10:56:43.508Z,2.10
2023-12-03T10:59:13.219Z,2.10
2023-12-03T11:01:49.224Z,2.00
2023-12-03T11:04:28.472Z,1.88
2023-12-03T11:06:56.916Z,1.70
2023-12-03T11:09:24.773Z,1.60
2023-12-03T11:11:51.993Z,1.48
2023-12-03T11:14:20.648Z,1.40
2023-12-03T11:17:10.070Z,1.40
2023-12-03T11:19:47.702Z,1.40
2023-12-03T11:22:36.115Z,1.50
2023-12-03T11:25:13.040Z,1.60
2023-12-03T11:27:43.856Z,1.70
2023-12-03T11:30:12.403Z,1.70
2023-12-03T11:32:46.404Z,1.80
2023-12-03T11:35:17.426Z,1.94
2023-12-03T11:37:45.189Z,2.04
2023-12-03T11:40:17.356Z,2.10
2023-12-03T11:42:50.869Z,2.20
2023-12-03T11:45:19.787Z,2.24
2023-12-03T11:48:05.802Z,2.30
2023-12-03T11:50:34.888Z,2.40
2023-12-03T11:53:01.577Z,2.50
2023-12-03T11:55:29.438Z,2.54
2023-12-03T11:57:56.671Z,2.60
2023-12-03T12:00:25.834Z,2.70
2023-12-03T12:02:52.957Z,3.00
2023-12-03T12:05:20.041Z,3.10
2023-12-03T12:08:06.131Z,3.20
2023-12-03T12:10:34.283Z,3.20
2023-12-03T12:13:02.542Z,3.30
2023-12-03T12:15:29.453Z,3.40
2023-12-03T12:17:56.606Z,3.40
2023-12-03T12:20:27.823Z,3.30
2023-12-03T12:22:56.174Z,3.20
2023-12-03T12:25:27.046Z,3.10
2023-12-03T12:27:54.488Z,3.02
2023-12-03T12:30:33.905Z,2.90
2023-12-03T12:33:04.109Z,2.80
2023-12-03T12:35:31.283Z,2.60
2023-12-03T12:38:06.581Z,2.40
2023-12-03T12:40:43.608Z,2.20
2023-12-03T12:43:12.552Z,2.10
2023-12-03T12:45:40.354Z,1.98
2023-12-03T12:48:34.970Z,1.80
2023-12-03T12:51:03.162Z,1.72
2023-12-03T12:53:56.452Z,1.70
2023-12-03T12:56:24.707Z,1.70
2023-12-03T12:58:51.912Z,1.70
2023-12-03T13:01:18.652Z,1.70
2023-12-03T13:03:45.352Z,1.70
2023-12-03T13:06:12.006Z,1.70
2023-12-03T13:08:40.318Z,1.70
2023-12-03T13:11:07.129Z,1.70
2023-12-03T13:13:34.028Z,1.76
2023-12-03T13:16:02.410Z,1.80
2023-12-03T13:18:29.704Z,1.80
2023-12-03T13:20:56.916Z,1.80
2023-12-03T13:23:24.200Z,1.80
2023-12-03T13:25:51.598Z,1.82
2023-12-03T13:28:19.622Z,1.90
2023-12-03T13:30:46.506Z,1.90
2023-12-03T13:33:13.894Z,1.86
2023-12-03T13:35:40.653Z,1.80
2023-12-03T13:38:07.360Z,1.80
2023-12-03T13:40:34.054Z,1.60
2023-12-03T13:43:00.708Z,1.50
2023-12-03T13:45:27.500Z,1.40
2023-12-03T13:47:54.531Z,1.32
2023-12-03T13:50:21.258Z,1.28
2023-12-03T13:52:47.924Z,1.10
2023-12-03T13:55:14.663Z,1.04
2023-12-03T13:57:41.532Z,0.94
2023-12-03T14:00:08.911Z,0.90
2023-12-03T14:02:42.420Z,0.80
2023-12-03T14:07:40.476Z,0.62
2023-12-03T14:10:12.323Z,0.50
2023-12-03T14:12:39.129Z,0.42
2023-12-03T14:15:06.594Z,0.40
2023-12-03T14:17:33.312Z,0.28
2023-12-03T14:20:00.233Z,0.20
2023-12-03T14:22:27.031Z,0.10
2023-12-03T14:24:53.704Z,0.00
2023-12-03T14:27:20.657Z,-0.10
2023-12-03T14:29:47.305Z,-0.20
2023-12-03T14:32:13.997Z,-0.30
2023-12-03T14:34:40.664Z,-0.30
2023-12-03T14:37:07.354Z,-0.40
2023-12-03T14:39:34.219Z,-0.50
2023-12-03T14:42:00.960Z,-0.50
2023-12-03T14:44:27.661Z,-0.60
2023-12-03T14:46:54.252Z,-0.62
2023-12-03T14:49:21.007Z,-0.70
2023-12-03T14:51:47.715Z,-0.80
2023-12-03T14:54:20.969Z,-0.90
2023-12-03T14:56:48.211Z,-0.90
2023-12-03T14:59:15.033Z,-1.00
2023-12-03T15:01:42.228Z,-1.10
2023-12-03T15:04:09.016Z,-1.16
2023-12-03T15:06:35.871Z,-1.20
2023-12-03T15:09:03.033Z,-1.30
2023-12-03T15:11:30.007Z,-1.40
2023-12-03T15:13:57.466Z,-1.48
2023-12-03T15:16:25.009Z,-1.54
2023-12-03T15:18:52.520Z,-1.60
2023-12-03T15:21:19.429Z,-1.70
2023-12-03T15:23:46.035Z,-1.80
2023-12-03T15:26:15.610Z,-1.80
2023-12-03T15:28:43.780Z,-1.90
2023-12-03T15:31:11.756Z,-1.94
2023-12-03T15:33:39.325Z,-2.00
2023-12-03T15:36:07.384Z,-2.02
2023-12-03T15:38:34.130Z,-2.10
2023-12-03T15:41:01.831Z,-2.14
2023-12-03T15:43:34.297Z,-2.20
2023-12-03T15:46:08.761Z,-2.22
2023-12-03T15:48:36.042Z,-2.30
2023-12-03T15:51:03.403Z,-2.30
2023-12-03T15:53:30.206Z,-2.40
2023-12-03T15:55:57.230Z,-2.50
2023-12-03T15:58:25.990Z,-2.50
2023-12-03T16:00:54.071Z,-2.60
2023-12-03T16:03:21.771Z,-2.60
2023-12-03T16:05:49.232Z,-2.64
2023-12-03T16:08:16.268Z,-2.70
2023-12-03T16:10:42.858Z,-2.80
2023-12-03T16:13:09.571Z,-2.80
2023-12-03T16:15:36.445Z,-2.90
2023-12-03T16:18:03.512Z,-2.94
2023-12-03T16:20:30.311Z,-3.00
2023-12-03T16:22:57.086Z,-3.10
2023-12-03T16:25:24.956Z,-3.10
2023-12-03T16:27:51.683Z,-3.20
2023-12-03T16:30:18.481Z,-3.20
2023-12-03T16:32:45.471Z,-3.28
2023-12-03T16:35:12.974Z,-3.30
2023-12-03T16:37:40.478Z,-3.30
2023-12-03T16:40:08.563Z,-3.38
2023-12-03T16:42:35.607Z,-3.40
2023-12-03T16:45:02.446Z,-3.40
2023-12-03T16:47:29.123Z,-3.40
2023-12-03T16:49:56.972Z,-3.40
2023-12-03T16:52:23.706Z,-3.40
2023-12-03T16:54:50.557Z,-3.40
2023-12-03T16:57:17.380Z,-3.50
2023-12-03T16:59:44.826Z,-3.50
2023-12-03T17:02:11.588Z,-3.50
2023-12-03T17:04:39.036Z,-3.60
2023-12-03T17:07:06.393Z,-3.60
2023-12-03T17:09:33.568Z,-3.62
2023-12-03T17:12:03.094Z,-3.70
2023-12-03T17:14:33.660Z,-3.70
2023-12-03T17:17:00.313Z,-3.80
2023-12-03T17:19:27.092Z,-3.84
2023-12-03T17:21:53.793Z,-3.90
2023-12-03T17:24:20.429Z,-3.90
2023-12-03T17:26:47.252Z,-4.00
2023-12-03T17:29:14.020Z,-4.00
2023-12-03T17:31:42.471Z,-4.10
2023-12-03T17:34:09.532Z,-4.10
2023-12-03T17:36:36.403Z,-4.10
2023-12-03T17:39:05.191Z,-4.20
2023-12-03T17:41:32.681Z,-4.20
2023-12-03T17:43:59.364Z,-4.20
2023-12-03T17:46:25.996Z,-4.30
2023-12-03T17:48:53.881Z,-4.30
2023-12-03T17:51:20.645Z,-4.30
2023-12-03T17:53:47.418Z,-4.30
2023-12-03T17:56:14.467Z,-4.32
2023-12-03T17:58:41.239Z,-4.40
2023-12-03T18:01:08.542Z,-4.40
2023-12-03T18:03:35.694Z,-4.42
2023-12-03T18:06:05.194Z,-4.50
2023-12-03T18:08:32.290Z,-4.50
2023-12-03T18:10:59.848Z,-4.50
2023-12-03T18:13:26.576Z,-4.50
2023-12-03T18:15:53.455Z,-4.58
2023-12-03T18:18:20.568Z,-4.60
2023-12-03T18:20:47.360Z,-4.60
2023-12-03T18:23:14.215Z,-4.60
2023-12-03T18:25:40.924Z,-4.70
2023-12-03T18:28:10.200Z,-4.70
2023-12-03T18:30:39.695Z,-4.70
2023-12-03T18:33:09.145Z,-4.72
2023-12-03T18:35:36.467Z,-4.80
2023-12-03T18:38:03.260Z,-4.80
2023-12-03T18:40:30.050Z,-4.80
2023-12-03T18:42:57.162Z,-4.80
2023-12-03T18:45:24.925Z,-4.80
2023-12-03T18:47:52.004Z,-4.80
2023-12-03T18:50:19.685Z,-4.74
2023-12-03T18:52:46.501Z,-4.70
2023-12-03T18:55:13.723Z,-4.70
2023-12-03T18:57:40.632Z,-4.70
2023-12-03T19:00:08.846Z,-4.70
2023-12-03T19:02:36.774Z,-4.78
2023-12-03T19:05:03.714Z,-4.80
2023-12-03T19:07:30.695Z,-4.80
2023-12-03T19:09:59.378Z,-4.82
2023-12-03T19:12:26.319Z,-4.90
2023-12-03T19:14:53.787Z,-4.90
2023-12-03T19:17:20.835Z,-4.90
2023-12-03T19:19:47.775Z,-4.90
2023-12-03T19:22:14.687Z,-5.00
2023-12-03T19:24:41.461Z,-5.00
2023-12-03T19:27:08.168Z,-5.02
2023-12-03T19:29:40.809Z,-5.10
2023-12-03T19:32:07.514Z,-5.10
2023-12-03T19:34:34.296Z,-5.10
2023-12-03T19:37:01.155Z,-5.10
2023-12-03T19:39:30.364Z,-5.12
2023-12-03T19:41:58.175Z,-5.20
2023-12-03T19:44:25.563Z,-5.30
2023-12-03T19:46:54.159Z,-5.30
2023-12-03T19:49:21.180Z,-5.40
2023-12-03T19:51:48.061Z,-5.40
2023-12-03T19:54:14.853Z,-5.48
2023-12-03T19:56:41.560Z,-5.50
2023-12-03T19:59:08.268Z,-5.52
2023-12-03T20:01:35.077Z,-5.50
2023-12-03T20:04:02.099Z,-5.56
2023-12-03T20:06:28.889Z,-5.60
2023-12-03T20:08:55.552Z,-5.60
2023-12-03T20:11:22.369Z,-5.60
2023-12-03T20:13:49.183Z,-5.68
2023-12-03T20:16:15.981Z,-5.70
2023-12-03T20:18:42.947Z,-5.70
2023-12-03T20:21:09.774Z,-5.70
2023-12-03T20:23:36.476Z,-5.70
2023-12-03T20:26:09.702Z,-5.70
2023-12-03T20:28:36.583Z,-5.70
2023-12-03T20:31:04.409Z,-5.70
2023-12-03T20:33:32.297Z,-5.70
2023-12-03T20:35:59.113Z,-5.70
2023-12-03T20:38:26.206Z,-5.70
2023-12-03T20:40:52.984Z,-5.70
2023-12-03T20:43:19.738Z,-5.70
2023-12-03T20:45:46.842Z,-5.70
2023-12-03T20:48:14.103Z,-5.70
2023-12-03T20:50:40.901Z,-5.70
2023-12-03T20:53:07.666Z,-5.70
2023-12-03T20:55:34.304Z,-5.72
2023-12-03T20:58:01.507Z,-5.80
2023-12-03T21:00:29.254Z,-5.80
2023-12-03T21:02:56.796Z,-5.80
2023-12-03T21:05:23.491Z,-5.80
2023-12-03T21:07:51.570Z,-5.82
2023-12-03T21:10:19.367Z,-5.90
2023-12-03T21:12:46.162Z,-5.90
2023-12-03T21:15:13.957Z,-5.92
2023-12-03T21:17:40.735Z,-6.00
2023-12-03T21:20:09.376Z,-6.00
2023-12-03T21:22:36.186Z,-6.00
2023-12-03T21:25:05.104Z,-6.10
2023-12-03T21:27:35.833Z,-6.10
2023-12-03T21:30:02.986Z,-6.10
2023-12-03T21:32:30.901Z,-6.10
2023-12-03T21:34:57.726Z,-6.10
2023-12-03T21:37:24.870Z,-6.20
2023-12-03T21:39:51.881Z,-6.20
2023-12-03T21:42:18.783Z,-6.20
2023-12-03T21:44:45.436Z,-6.20
2023-12-03T21:47:12.034Z,-6.28
2023-12-03T21:49:38.841Z,-6.28
2023-12-03T21:52:05.695Z,-6.30
2023-12-03T21:54:32.534Z,-6.32
2023-12-03T21:56:59.413Z,-6.30
2023-12-03T21:59:26.209Z,-6.30
2023-12-03T22:01:52.971Z,-6.40
2023-12-03T22:04:19.638Z,-6.42
2023-12-03T22:06:46.567Z,-6.50
2023-12-03T22:09:15.400Z,-6.50
2023-12-03T22:11:43.017Z,-6.60
2023-12-03T22:14:09.703Z,-6.60
2023-12-03T22:16:37.842Z,-6.60
2023-12-03T22:19:04.547Z,-6.60
2023-12-03T22:21:31.271Z,-6.64
2023-12-03T22:23:59.167Z,-6.70
2023-12-03T22:26:26.140Z,-6.70
2023-12-03T22:28:54.086Z,-6.80
2023-12-03T22:31:20.740Z,-6.80
2023-12-03T22:33:47.455Z,-6.90
2023-12-03T22:36:14.207Z,-6.90
2023-12-03T22:38:40.855Z,-6.90
2023-12-03T22:41:10.169Z,-6.94
2023-12-03T22:43:36.918Z,-6.90
2023-12-03T22:46:03.829Z,-6.96
2023-12-03T22:48:31.819Z,-6.90
2023-12-03T22:50:58.713Z,-7.00
2023-12-03T22:53:25.613Z,-7.00
2023-12-03T22:55:52.373Z,-7.00
2023-12-03T22:58:19.248Z,-7.00
2023-12-03T23:00:46.012Z,-7.00
2023-12-03T23:03:12.734Z,-7.02
2023-12-03T23:05:39.754Z,-7.08
2023-12-03T23:08:06.768Z,-7.10
2023-12-03T23:10:34.409Z,-7.12
2023-12-03T23:13:01.670Z,-7.10
2023-12-03T23:15:28.307Z,-7.10
2023-12-03T23:17:55.035Z,-7.10
2023-12-03T23:20:21.828Z,-7.10
2023-12-03T23:22:48.508Z,-7.10
2023-12-03T23:25:15.478Z,-7.14
2023-12-03T23:27:42.253Z,-7.18
2023-12-03T23:30:09.378Z,-7.20
2023-12-03T23:32:36.192Z,-7.20
2023-12-03T23:35:04.584Z,-7.20
2023-12-03T23:37:31.358Z,-7.20
2023-12-03T23:39:58.098Z,-7.20
2023-12-03T23:42:24.846Z,-7.24
2023-12-03T23:44:51.994Z,-7.30
2023-12-03T23:47:18.888Z,-7.26
2023-12-03T23:49:45.683Z,-7.24
2023-12-03T23:52:12.497Z,-7.30
2023-12-03T23:54:41.069Z,-7.30
2023-12-03T23:57:08.135Z,-7.30
2023-12-03T23:59:34.744Z,-7.30
